createdAt,value
2022-12-19T00:04:10.197Z,38.97
2022-12-19T00:11:11.437Z,43.70
2022-12-19T00:17:53.763Z,38.15
2022-12-19T00:24:36.213Z,34.83
2022-12-19T00:31:20.041Z,40.65
2022-12-19T00:38:02.997Z,42.25
2022-12-19T00:44:45.347Z,45.42
2022-12-19T00:51:29.656Z,41.78
2022-12-19T00:58:33.284Z,43.00
2022-12-19T01:05:42.195Z,45.17
2022-12-19T01:12:43.518Z,38.00
2022-12-19T01:19:27.813Z,38.97
2022-12-19T01:26:10.256Z,44.78
2022-12-19T01:32:52.669Z,43.78
2022-12-19T01:39:35.837Z,45.58
2022-12-19T01:46:24.821Z,44.22
2022-12-19T01:53:12.508Z,48.13
2022-12-19T01:59:59.163Z,46.33
2022-12-19T02:06:42.969Z,47.85
2022-12-19T02:13:25.632Z,38.83
2022-12-19T02:20:48.342Z,47.28
2022-12-19T02:27:42.738Z,47.78
2022-12-19T02:34:44.380Z,47.30
2022-12-19T02:41:43.091Z,46.17
2022-12-19T02:48:31.568Z,44.97
2022-12-19T02:55:21.444Z,44.08
2022-12-19T03:02:17.327Z,50.80
2022-12-19T03:09:13.264Z,46.33
2022-12-19T03:15:58.687Z,42.80
2022-12-19T03:22:41.092Z,44.13
2022-12-19T03:29:45.822Z,45.05
2022-12-19T03:36:33.235Z,47.03
2022-12-19T03:43:17.316Z,46.97
2022-12-19T03:49:59.917Z,42.97
2022-12-19T03:56:50.972Z,39.35
2022-12-19T04:03:34.420Z,43.67
2022-12-19T04:10:20.424Z,42.70
2022-12-19T04:17:57.266Z,39.95
2022-12-19T04:24:43.292Z,45.33
2022-12-19T04:31:25.840Z,41.53
2022-12-19T04:38:11.695Z,40.63
2022-12-19T04:44:54.172Z,40.72
2022-12-19T04:51:36.516Z,43.30
2022-12-19T04:58:21.866Z,43.65
2022-12-19T05:05:04.980Z,42.10
2022-12-19T05:11:51.618Z,39.72
2022-12-19T05:18:34.954Z,43.90
2022-12-19T05:25:17.503Z,38.53
2022-12-19T05:32:00.191Z,38.20
2022-12-19T05:38:43.111Z,35.63
2022-12-19T05:45:25.439Z,42.47
2022-12-19T05:52:10.617Z,43.40
2022-12-19T05:58:54.510Z,40.78
2022-12-19T06:05:56.838Z,46.60
2022-12-19T06:12:39.239Z,41.83
2022-12-19T06:19:21.995Z,41.78
2022-12-19T06:26:06.426Z,47.65
2022-12-19T06:32:48.738Z,48.28
2022-12-19T06:39:31.126Z,47.65
2022-12-19T06:46:13.744Z,46.60
2022-12-19T06:52:56.100Z,40.90
2022-12-19T06:59:38.571Z,43.78
2022-12-19T07:06:43.471Z,47.42
2022-12-19T07:13:29.740Z,45.42
2022-12-19T07:20:13.289Z,47.05
2022-12-19T07:26:56.073Z,45.95
2022-12-19T07:33:38.397Z,39.13
2022-12-19T07:40:20.733Z,37.67
2022-12-19T07:47:03.054Z,36.03
2022-12-19T07:53:45.336Z,38.80
2022-12-19T08:00:27.812Z,36.22
2022-12-19T08:07:10.605Z,37.22
2022-12-19T08:13:54.396Z,38.63
2022-12-19T08:20:36.672Z,37.05
2022-12-19T08:27:18.959Z,38.03
2022-12-19T08:34:01.469Z,38.20
2022-12-19T08:41:27.388Z,38.35
2022-12-19T08:48:11.216Z,36.08
2022-12-19T08:54:53.539Z,42.60
2022-12-19T09:01:36.119Z,35.92
2022-12-19T09:08:18.537Z,42.67
2022-12-19T09:15:00.979Z,35.35
2022-12-19T09:21:43.631Z,34.35
2022-12-19T09:28:27.715Z,29.40
2022-12-19T09:35:10.456Z,32.33
2022-12-19T09:42:10.206Z,33.75
2022-12-19T09:48:57.531Z,38.40
2022-12-19T09:55:41.423Z,29.77
2022-12-19T10:02:35.404Z,30.85
2022-12-19T10:11:58.934Z,30.73
2022-12-19T10:16:38.923Z,31.92
2022-12-19T10:23:58.936Z,33.42
2022-12-19T10:30:57.878Z,34.50
2022-12-19T10:37:57.964Z,32.13
2022-12-19T10:45:01.505Z,25.23
2022-12-19T10:51:55.968Z,29.95
2022-12-19T10:58:42.111Z,33.30
2022-12-19T11:05:27.740Z,30.48
2022-12-19T11:16:43.156Z,26.55
2022-12-19T11:29:39.757Z,28.33
2022-12-19T11:30:38.060Z,30.50
2022-12-19T11:33:55.121Z,26.48
2022-12-19T11:40:52.056Z,27.33
2022-12-19T11:48:03.351Z,24.67
2022-12-19T11:54:57.768Z,27.88
2022-12-19T12:02:01.017Z,25.45
2022-12-19T12:10:27.933Z,25.48
2022-12-19T12:26:51.559Z,26.23
2022-12-19T12:31:31.949Z,23.00
2022-12-19T12:45:46.062Z,28.35
2022-12-19T12:52:42.709Z,26.23
2022-12-19T12:59:27.945Z,26.98
2022-12-19T13:06:36.709Z,30.00
2022-12-19T13:13:25.651Z,36.42
2022-12-19T13:20:12.890Z,34.15
2022-12-19T13:26:55.275Z,32.20
2022-12-19T13:33:55.164Z,27.35
2022-12-19T13:40:57.758Z,28.75
2022-12-19T13:47:43.488Z,26.02
2022-12-19T13:54:34.564Z,31.98
2022-12-19T14:01:25.846Z,28.05
2022-12-19T14:08:09.584Z,30.65
2022-12-19T14:15:43.849Z,28.83
2022-12-19T14:22:27.125Z,33.20
2022-12-19T14:29:38.903Z,33.08
2022-12-19T14:36:32.716Z,30.65
2022-12-19T14:44:00.137Z,31.02
2022-12-19T14:54:10.588Z,31.63
2022-12-19T14:58:52.270Z,24.92
2022-12-19T15:05:02.215Z,27.75
2022-12-19T15:14:48.270Z,29.33
2022-12-19T15:19:14.617Z,30.00
2022-12-19T15:26:03.927Z,31.85
2022-12-19T15:32:47.614Z,30.23
2022-12-19T15:39:44.539Z,30.23
2022-12-19T15:46:31.102Z,34.83
2022-12-19T15:53:29.779Z,30.15
2022-12-19T16:00:27.449Z,27.80
2022-12-19T16:07:18.340Z,34.45
2022-12-19T16:14:00.806Z,35.80
2022-12-19T16:20:43.935Z,33.67
2022-12-19T16:27:29.592Z,33.17
2022-12-19T16:34:21.666Z,29.58
2022-12-19T16:41:06.357Z,27.58
2022-12-19T16:47:51.246Z,27.02
2022-12-19T16:54:36.250Z,31.83
2022-12-19T17:01:20.427Z,38.33
2022-12-19T17:08:12.896Z,28.17
2022-12-19T17:14:56.399Z,22.52
2022-12-19T17:21:39.312Z,25.88
2022-12-19T17:28:22.229Z,21.25
2022-12-19T17:35:06.336Z,26.65
2022-12-19T17:42:22.388Z,25.30
2022-12-19T17:49:05.154Z,25.63
2022-12-19T17:55:47.681Z,27.88
2022-12-19T18:02:30.756Z,25.77
2022-12-19T18:09:21.081Z,24.63
2022-12-19T18:16:03.991Z,24.20
2022-12-19T18:22:46.929Z,27.38
2022-12-19T18:29:29.284Z,51.03
2022-12-19T18:36:21.856Z,27.95
2022-12-19T18:43:05.449Z,27.05
2022-12-19T18:49:51.107Z,22.88
2022-12-19T18:56:33.495Z,26.17
2022-12-19T19:03:22.303Z,24.73
2022-12-19T19:10:23.624Z,22.48
2022-12-19T19:17:28.113Z,25.73
2022-12-19T19:24:20.517Z,20.83
2022-12-19T19:31:24.586Z,25.40
2022-12-19T19:38:11.162Z,24.45
2022-12-19T19:44:53.627Z,27.42
2022-12-19T19:51:36.554Z,26.02
2022-12-19T19:58:18.896Z,27.48
2022-12-19T20:05:01.290Z,25.23
2022-12-19T20:11:43.691Z,28.23
2022-12-19T20:18:27.211Z,24.25
2022-12-19T20:25:12.143Z,27.02
2022-12-19T20:32:14.605Z,27.63
2022-12-19T20:38:56.982Z,25.77
2022-12-19T20:45:41.885Z,27.25
2022-12-19T20:52:29.632Z,27.50
2022-12-19T20:59:41.365Z,22.67
2022-12-19T21:06:27.302Z,22.08
2022-12-19T21:13:09.677Z,20.65
2022-12-19T21:19:52.042Z,22.15
2022-12-19T21:26:34.386Z,23.38
2022-12-19T21:33:16.834Z,24.48
2022-12-19T21:39:59.226Z,24.58
2022-12-19T21:46:42.704Z,22.83
2022-12-19T21:53:25.151Z,22.33
2022-12-19T22:00:10.990Z,23.90
2022-12-19T22:06:54.441Z,28.42
2022-12-19T22:13:36.780Z,31.58
2022-12-19T22:20:24.614Z,27.95
2022-12-19T22:27:25.301Z,30.65
2022-12-19T22:34:11.048Z,30.90
2022-12-19T22:40:53.378Z,28.25
2022-12-19T22:47:35.723Z,24.60
2022-12-19T22:54:18.046Z,27.50
2022-12-19T23:01:00.432Z,27.95
2022-12-19T23:07:42.879Z,32.33
2022-12-19T23:14:25.697Z,34.42
2022-12-19T23:21:14.115Z,29.90
2022-12-19T23:27:56.477Z,29.73
2022-12-19T23:34:38.830Z,32.20
2022-12-19T23:41:21.387Z,39.13
2022-12-19T23:48:04.205Z,35.10
2022-12-19T23:54:46.643Z,26.75
